sensor_id;sensor_type;location;lat;lon;timestamp;pressure;altitude;pressure_sealevel;temperature;humidity
7986;BME280;4038;42.612;23.066;2022-09-12T00:01:10;92918.28;;;18.71;78.16
7986;BME280;4038;42.612;23.066;2022-09-12T00:03:37;92910.81;;;18.51;78.77
7986;BME280;4038;42.612;23.066;2022-09-12T00:06:12;92911.44;;;18.72;78.05
7986;BME280;4038;42.612;23.066;2022-09-12T00:08:39;92905.22;;;18.36;78.95
7986;BME280;4038;42.612;23.066;2022-09-12T00:11:10;92922.69;;;18.66;77.20
7986;BME280;4038;42.612;23.066;2022-09-12T00:13:37;92923.00;;;18.48;78.81
7986;BME280;4038;42.612;23.066;2022-09-12T00:16:03;92905.13;;;18.05;79.80
7986;BME280;4038;42.612;23.066;2022-09-12T00:18:30;92918.63;;;18.09;80.11
7986;BME280;4038;42.612;23.066;2022-09-12T00:20:56;92918.13;;;17.82;82.40
7986;BME280;4038;42.612;23.066;2022-09-12T00:23:22;92920.25;;;18.55;78.76
7986;BME280;4038;42.612;23.066;2022-09-12T00:25:47;92920.88;;;18.18;79.21
7986;BME280;4038;42.612;23.066;2022-09-12T00:28:15;92925.03;;;18.47;78.80
7986;BME280;4038;42.612;23.066;2022-09-12T00:30:46;92919.19;;;18.66;77.40
7986;BME280;4038;42.612;23.066;2022-09-12T00:33:15;92918.44;;;18.58;77.34
7986;BME280;4038;42.612;23.066;2022-09-12T00:35:45;92913.38;;;18.41;77.85
7986;BME280;4038;42.612;23.066;2022-09-12T00:38:15;92914.47;;;17.87;79.69
7986;BME280;4038;42.612;23.066;2022-09-12T00:40:41;92913.00;;;17.58;80.69
7986;BME280;4038;42.612;23.066;2022-09-12T00:45:40;92916.84;;;16.43;86.34
7986;BME280;4038;42.612;23.066;2022-09-12T00:48:16;92918.09;;;16.97;84.60
7986;BME280;4038;42.612;23.066;2022-09-12T00:50:45;92918.44;;;16.72;85.30
7986;BME280;4038;42.612;23.066;2022-09-12T00:53:10;92912.59;;;16.76;84.84
7986;BME280;4038;42.612;23.066;2022-09-12T00:55:46;92814.94;;;16.13;84.91
7986;BME280;4038;42.612;23.066;2022-09-12T00:58:25;92901.56;;;16.84;84.52
7986;BME280;4038;42.612;23.066;2022-09-12T01:00:52;92900.38;;;16.58;85.14
7986;BME280;4038;42.612;23.066;2022-09-12T01:03:20;92892.59;;;16.70;85.31
7986;BME280;4038;42.612;23.066;2022-09-12T01:06:10;92896.16;;;17.55;81.92
7986;BME280;4038;42.612;23.066;2022-09-12T01:08:39;92890.13;;;17.36;81.66
7986;BME280;4038;42.612;23.066;2022-09-12T01:11:07;92905.41;;;17.30;82.61
7986;BME280;4038;42.612;23.066;2022-09-12T01:13:34;92889.34;;;16.79;84.14
7986;BME280;4038;42.612;23.066;2022-09-12T01:16:02;92892.44;;;16.96;84.57
7986;BME280;4038;42.612;23.066;2022-09-12T01:26:43;92901.28;;;16.95;80.23
7986;BME280;4038;42.612;23.066;2022-09-12T01:34:45;92885.34;;;15.65;86.09
7986;BME280;4038;42.612;23.066;2022-09-12T01:40:11;92892.34;;;15.79;86.90
7986;BME280;4038;42.612;23.066;2022-09-12T01:42:54;92893.53;;;16.18;86.23
7986;BME280;4038;42.612;23.066;2022-09-12T01:45:34;92898.09;;;16.49;82.92
7986;BME280;4038;42.612;23.066;2022-09-12T01:48:18;92898.63;;;16.27;84.35
7986;BME280;4038;42.612;23.066;2022-09-12T01:51:00;92890.03;;;16.38;83.33
7986;BME280;4038;42.612;23.066;2022-09-12T01:53:34;92900.22;;;16.22;80.70
7986;BME280;4038;42.612;23.066;2022-09-12T01:56:17;92896.34;;;16.05;80.88
7986;BME280;4038;42.612;23.066;2022-09-12T01:58:53;92902.34;;;16.50;78.30
7986;BME280;4038;42.612;23.066;2022-09-12T02:01:30;92895.94;;;16.55;78.22
7986;BME280;4038;42.612;23.066;2022-09-12T02:04:09;92904.47;;;16.78;78.62
7986;BME280;4038;42.612;23.066;2022-09-12T02:07:00;92900.16;;;16.90;78.25
7986;BME280;4038;42.612;23.066;2022-09-12T02:09:42;92902.03;;;16.95;76.28
7986;BME280;4038;42.612;23.066;2022-09-12T02:12:10;92903.59;;;16.62;79.44
7986;BME280;4038;42.612;23.066;2022-09-12T02:14:42;92898.19;;;16.77;78.51
7986;BME280;4038;42.612;23.066;2022-09-12T02:17:15;92879.50;;;16.57;78.19
7986;BME280;4038;42.612;23.066;2022-09-12T02:19:46;92892.56;;;16.49;79.50
7986;BME280;4038;42.612;23.066;2022-09-12T02:22:17;92907.72;;;16.69;78.02
7986;BME280;4038;42.612;23.066;2022-09-12T02:24:48;92896.81;;;16.16;80.56
7986;BME280;4038;42.612;23.066;2022-09-12T02:27:23;92888.09;;;15.91;81.73
7986;BME280;4038;42.612;23.066;2022-09-12T02:29:50;92869.59;;;15.73;81.22
7986;BME280;4038;42.612;23.066;2022-09-12T02:32:36;92892.78;;;15.83;81.21
7986;BME280;4038;42.612;23.066;2022-09-12T02:35:15;92902.16;;;15.67;83.20
7986;BME280;4038;42.612;23.066;2022-09-12T02:38:06;92904.13;;;15.93;83.08
7986;BME280;4038;42.612;23.066;2022-09-12T02:40:33;92895.97;;;15.74;81.46
7986;BME280;4038;42.612;23.066;2022-09-12T02:43:00;92897.44;;;15.49;82.85
7986;BME280;4038;42.612;23.066;2022-09-12T02:45:27;92898.31;;;15.57;84.08
7986;BME280;4038;42.612;23.066;2022-09-12T02:47:57;92905.69;;;16.01;82.82
7986;BME280;4038;42.612;23.066;2022-09-12T02:50:25;92897.13;;;15.79;82.08
7986;BME280;4038;42.612;23.066;2022-09-12T02:52:52;92896.00;;;15.48;82.98
7986;BME280;4038;42.612;23.066;2022-09-12T02:55:25;92898.53;;;15.19;83.74
7986;BME280;4038;42.612;23.066;2022-09-12T02:57:52;92905.28;;;14.79;85.22
7986;BME280;4038;42.612;23.066;2022-09-12T03:00:17;92917.16;;;14.42;87.01
7986;BME280;4038;42.612;23.066;2022-09-12T03:19:39;92907.47;;;15.65;82.32
7986;BME280;4038;42.612;23.066;2022-09-12T03:28:21;92926.03;;;15.12;82.43
7986;BME280;4038;42.612;23.066;2022-09-12T03:30:43;92908.72;;;15.11;82.34
7986;BME280;4038;42.612;23.066;2022-09-12T03:33:13;92923.41;;;15.19;81.75
7986;BME280;4038;42.612;23.066;2022-09-12T03:35:39;92910.72;;;14.98;81.88
7986;BME280;4038;42.612;23.066;2022-09-12T03:38:05;92909.88;;;15.03;82.51
7986;BME280;4038;42.612;23.066;2022-09-12T03:40:33;92875.47;;;14.45;83.91
7986;BME280;4038;42.612;23.066;2022-09-12T03:42:58;92912.69;;;14.71;84.48
7986;BME280;4038;42.612;23.066;2022-09-12T03:45:23;92919.66;;;14.59;86.39
7986;BME280;4038;42.612;23.066;2022-09-12T03:47:49;92922.94;;;14.57;85.54
7986;BME280;4038;42.612;23.066;2022-09-12T03:50:14;92912.03;;;14.65;84.76
7986;BME280;4038;42.612;23.066;2022-09-12T03:52:40;92901.66;;;14.20;85.65
7986;BME280;4038;42.612;23.066;2022-09-12T03:55:06;92907.16;;;14.20;86.04
7986;BME280;4038;42.612;23.066;2022-09-12T03:57:32;92922.44;;;14.72;85.38
7986;BME280;4038;42.612;23.066;2022-09-12T03:59:57;92917.00;;;14.98;82.62
7986;BME280;4038;42.612;23.066;2022-09-12T04:02:22;92912.94;;;14.86;82.89
7986;BME280;4038;42.612;23.066;2022-09-12T04:04:48;92921.44;;;15.01;82.28
7986;BME280;4038;42.612;23.066;2022-09-12T04:07:15;92925.19;;;15.30;82.45
7986;BME280;4038;42.612;23.066;2022-09-12T04:09:40;92922.31;;;15.36;81.62
7986;BME280;4038;42.612;23.066;2022-09-12T04:12:06;92928.38;;;15.21;82.21
7986;BME280;4038;42.612;23.066;2022-09-12T04:14:32;92930.81;;;15.11;83.66
7986;BME280;4038;42.612;23.066;2022-09-12T04:16:58;92932.91;;;14.92;83.87
7986;BME280;4038;42.612;23.066;2022-09-12T04:19:25;92922.00;;;15.52;82.83
7986;BME280;4038;42.612;23.066;2022-09-12T04:21:50;92926.69;;;15.31;81.60
7986;BME280;4038;42.612;23.066;2022-09-12T04:24:16;92940.72;;;14.75;83.50
7986;BME280;4038;42.612;23.066;2022-09-12T04:26:41;92945.28;;;14.72;84.68
7986;BME280;4038;42.612;23.066;2022-09-12T04:29:06;92936.09;;;14.96;83.19
7986;BME280;4038;42.612;23.066;2022-09-12T04:31:34;92931.94;;;15.61;80.77
7986;BME280;4038;42.612;23.066;2022-09-12T04:34:00;92939.34;;;15.40;81.61
7986;BME280;4038;42.612;23.066;2022-09-12T04:36:27;92937.66;;;14.78;83.65
7986;BME280;4038;42.612;23.066;2022-09-12T04:38:53;92949.66;;;14.81;84.32
7986;BME280;4038;42.612;23.066;2022-09-12T04:41:27;92935.09;;;15.26;82.52
7986;BME280;4038;42.612;23.066;2022-09-12T04:43:55;92944.88;;;15.79;80.06
7986;BME280;4038;42.612;23.066;2022-09-12T04:46:28;92949.66;;;15.66;79.79
7986;BME280;4038;42.612;23.066;2022-09-12T04:48:53;92944.53;;;15.17;80.49
7986;BME280;4038;42.612;23.066;2022-09-12T04:51:24;92957.66;;;15.82;78.96
7986;BME280;4038;42.612;23.066;2022-09-12T04:54:00;92958.78;;;16.13;77.89
7986;BME280;4038;42.612;23.066;2022-09-12T04:56:26;92961.69;;;15.81;77.98
7986;BME280;4038;42.612;23.066;2022-09-12T04:58:53;92961.00;;;16.01;77.85
7986;BME280;4038;42.612;23.066;2022-09-12T05:01:21;92960.19;;;16.74;75.24
7986;BME280;4038;42.612;23.066;2022-09-12T05:03:49;92951.94;;;16.27;76.50
7986;BME280;4038;42.612;23.066;2022-09-12T05:06:18;92961.97;;;15.51;80.63
7986;BME280;4038;42.612;23.066;2022-09-12T05:08:45;92958.63;;;15.00;82.17
7986;BME280;4038;42.612;23.066;2022-09-12T05:11:15;92954.72;;;14.77;83.29
7986;BME280;4038;42.612;23.066;2022-09-12T05:13:40;92955.19;;;14.81;83.34
7986;BME280;4038;42.612;23.066;2022-09-12T05:16:08;92956.03;;;14.76;83.28
7986;BME280;4038;42.612;23.066;2022-09-12T05:18:35;92961.41;;;15.13;82.14
7986;BME280;4038;42.612;23.066;2022-09-12T05:21:03;92968.03;;;16.02;78.67
7986;BME280;4038;42.612;23.066;2022-09-12T05:23:30;92969.03;;;16.39;76.59
7986;BME280;4038;42.612;23.066;2022-09-12T05:25:57;92961.34;;;17.00;74.38
7986;BME280;4038;42.612;23.066;2022-09-12T05:28:24;92964.59;;;18.32;69.46
7986;BME280;4038;42.612;23.066;2022-09-12T05:31:25;92966.84;;;19.00;65.20
7986;BME280;4038;42.612;23.066;2022-09-12T05:33:52;92969.63;;;19.46;66.10
7986;BME280;4038;42.612;23.066;2022-09-12T05:36:21;92964.34;;;20.11;63.49
7986;BME280;4038;42.612;23.066;2022-09-12T05:38:46;92964.81;;;19.84;62.54
7986;BME280;4038;42.612;23.066;2022-09-12T05:41:17;92958.50;;;19.46;64.36
7986;BME280;4038;42.612;23.066;2022-09-12T05:43:43;92960.78;;;18.00;67.99
7986;BME280;4038;42.612;23.066;2022-09-12T05:46:17;92960.31;;;17.60;72.99
7986;BME280;4038;42.612;23.066;2022-09-12T05:48:44;92971.44;;;17.88;71.79
7986;BME280;4038;42.612;23.066;2022-09-12T05:51:19;92959.03;;;18.84;68.52
7986;BME280;4038;42.612;23.066;2022-09-12T05:53:55;92953.44;;;19.98;62.87
7986;BME280;4038;42.612;23.066;2022-09-12T05:56:23;92946.88;;;20.25;63.40
7986;BME280;4038;42.612;23.066;2022-09-12T05:59:11;92946.84;;;19.40;64.95
7986;BME280;4038;42.612;23.066;2022-09-12T06:01:37;92951.47;;;19.75;65.15
7986;BME280;4038;42.612;23.066;2022-09-12T06:04:04;92958.13;;;19.87;65.48
7986;BME280;4038;42.612;23.066;2022-09-12T06:06:31;92945.38;;;20.72;62.86
7986;BME280;4038;42.612;23.066;2022-09-12T06:09:00;92947.13;;;21.67;58.11
7986;BME280;4038;42.612;23.066;2022-09-12T06:11:30;92950.97;;;22.31;57.48
7986;BME280;4038;42.612;23.066;2022-09-12T06:13:58;92954.25;;;23.34;54.53
7986;BME280;4038;42.612;23.066;2022-09-12T06:16:29;92957.69;;;23.89;53.18
7986;BME280;4038;42.612;23.066;2022-09-12T06:18:58;92951.69;;;25.39;47.22
7986;BME280;4038;42.612;23.066;2022-09-12T06:21:25;92952.94;;;26.40;42.78
7986;BME280;4038;42.612;23.066;2022-09-12T06:23:52;92949.84;;;27.23;41.09
7986;BME280;4038;42.612;23.066;2022-09-12T06:26:18;92951.56;;;26.62;41.92
7986;BME280;4038;42.612;23.066;2022-09-12T06:28:48;92960.22;;;26.88;41.33
7986;BME280;4038;42.612;23.066;2022-09-12T06:31:16;92958.59;;;27.06;41.61
7986;BME280;4038;42.612;23.066;2022-09-12T06:33:44;92955.31;;;25.91;44.33
7986;BME280;4038;42.612;23.066;2022-09-12T06:36:13;92959.13;;;27.14;41.49
7986;BME280;4038;42.612;23.066;2022-09-12T06:38:40;92965.53;;;24.86;45.96
7986;BME280;4038;42.612;23.066;2022-09-12T06:41:09;92965.88;;;25.41;44.05
7986;BME280;4038;42.612;23.066;2022-09-12T06:43:39;92965.13;;;24.90;45.42
7986;BME280;4038;42.612;23.066;2022-09-12T06:46:05;92965.69;;;24.79;45.61
7986;BME280;4038;42.612;23.066;2022-09-12T06:48:31;92964.38;;;26.32;43.65
7986;BME280;4038;42.612;23.066;2022-09-12T06:51:03;92958.44;;;25.55;45.51
7986;BME280;4038;42.612;23.066;2022-09-12T06:53:29;92952.06;;;23.79;48.53
7986;BME280;4038;42.612;23.066;2022-09-12T06:55:59;92967.44;;;23.97;48.55
7986;BME280;4038;42.612;23.066;2022-09-12T06:58:25;92965.44;;;22.37;52.46
7986;BME280;4038;42.612;23.066;2022-09-12T07:00:51;92973.59;;;21.09;57.00
7986;BME280;4038;42.612;23.066;2022-09-12T07:03:17;92968.91;;;19.53;61.53
7986;BME280;4038;42.612;23.066;2022-09-12T07:05:44;92985.78;;;20.56;59.69
7986;BME280;4038;42.612;23.066;2022-09-12T07:08:12;92982.50;;;22.58;54.82
7986;BME280;4038;42.612;23.066;2022-09-12T07:10:38;92973.28;;;20.97;57.77
7986;BME280;4038;42.612;23.066;2022-09-12T07:13:03;92980.66;;;20.77;59.00
7986;BME280;4038;42.612;23.066;2022-09-12T07:15:29;92976.81;;;20.65;59.16
7986;BME280;4038;42.612;23.066;2022-09-12T07:17:55;92979.25;;;21.75;56.53
7986;BME280;4038;42.612;23.066;2022-09-12T07:20:20;92977.69;;;22.85;52.41
7986;BME280;4038;42.612;23.066;2022-09-12T07:22:47;92961.19;;;21.76;54.68
7986;BME280;4038;42.612;23.066;2022-09-12T07:25:16;92975.22;;;21.86;54.02
7986;BME280;4038;42.612;23.066;2022-09-12T07:27:41;92965.09;;;21.98;53.60
7986;BME280;4038;42.612;23.066;2022-09-12T07:30:07;92972.19;;;21.92;53.79
7986;BME280;4038;42.612;23.066;2022-09-12T07:32:33;92965.94;;;22.26;52.48
7986;BME280;4038;42.612;23.066;2022-09-12T07:35:01;92967.59;;;21.87;53.57
7986;BME280;4038;42.612;23.066;2022-09-12T07:37:29;92966.84;;;22.72;52.21
7986;BME280;4038;42.612;23.066;2022-09-12T07:39:56;92973.72;;;23.79;48.47
7986;BME280;4038;42.612;23.066;2022-09-12T07:42:21;92964.19;;;22.30;52.64
7986;BME280;4038;42.612;23.066;2022-09-12T07:44:47;92972.72;;;23.47;50.51
7986;BME280;4038;42.612;23.066;2022-09-12T07:47:13;92972.34;;;22.97;49.68
7986;BME280;4038;42.612;23.066;2022-09-12T07:49:38;92961.81;;;23.15;49.63
7986;BME280;4038;42.612;23.066;2022-09-12T07:52:03;92980.19;;;21.95;52.06
7986;BME280;4038;42.612;23.066;2022-09-12T07:54:29;92971.09;;;20.95;55.27
7986;BME280;4038;42.612;23.066;2022-09-12T07:57:00;92984.31;;;22.29;52.10
7986;BME280;4038;42.612;23.066;2022-09-12T07:59:26;92964.78;;;22.11;50.12
7986;BME280;4038;42.612;23.066;2022-09-12T08:01:52;92983.66;;;22.03;51.40
7986;BME280;4038;42.612;23.066;2022-09-12T08:04:17;92982.47;;;21.89;51.45
7986;BME280;4038;42.612;23.066;2022-09-12T08:06:43;92991.72;;;22.34;50.87
7986;BME280;4038;42.612;23.066;2022-09-12T08:09:08;92976.94;;;21.39;52.59
7986;BME280;4038;42.612;23.066;2022-09-12T08:11:36;92979.56;;;21.05;54.03
7986;BME280;4038;42.612;23.066;2022-09-12T08:14:01;92968.38;;;20.40;54.37
7986;BME280;4038;42.612;23.066;2022-09-12T08:16:30;92990.66;;;20.33;55.61
7986;BME280;4038;42.612;23.066;2022-09-12T08:18:57;92983.69;;;20.01;56.89
7986;BME280;4038;42.612;23.066;2022-09-12T08:21:26;92989.84;;;19.84;57.55
7986;BME280;4038;42.612;23.066;2022-09-12T08:23:54;92986.25;;;20.22;55.78
7986;BME280;4038;42.612;23.066;2022-09-12T08:26:19;92989.75;;;20.30;56.56
7986;BME280;4038;42.612;23.066;2022-09-12T08:28:45;92985.78;;;19.85;57.79
7986;BME280;4038;42.612;23.066;2022-09-12T08:31:14;92996.22;;;20.33;57.64
7986;BME280;4038;42.612;23.066;2022-09-12T08:33:40;92991.53;;;19.72;59.50
7986;BME280;4038;42.612;23.066;2022-09-12T08:36:19;92981.31;;;21.50;55.30
7986;BME280;4038;42.612;23.066;2022-09-12T08:38:47;92981.66;;;23.09;49.77
7986;BME280;4038;42.612;23.066;2022-09-12T08:41:37;92980.16;;;21.78;53.20
7986;BME280;4038;42.612;23.066;2022-09-12T08:49:33;92974.03;;;20.97;55.81
7986;BME280;4038;42.612;23.066;2022-09-12T08:52:04;92974.22;;;20.67;57.48
7986;BME280;4038;42.612;23.066;2022-09-12T08:54:31;92973.78;;;20.78;55.92
7986;BME280;4038;42.612;23.066;2022-09-12T08:57:02;92971.81;;;21.28;53.92
7986;BME280;4038;42.612;23.066;2022-09-12T08:59:40;92968.00;;;22.86;49.91
7986;BME280;4038;42.612;23.066;2022-09-12T09:07:57;92972.41;;;23.80;47.33
7986;BME280;4038;42.612;23.066;2022-09-12T09:10:46;92959.81;;;22.54;50.71
7986;BME280;4038;42.612;23.066;2022-09-12T09:19:00;92965.00;;;23.02;50.44
7986;BME280;4038;42.612;23.066;2022-09-12T09:21:36;92974.63;;;23.45;48.08
7986;BME280;4038;42.612;23.066;2022-09-12T09:24:12;92966.00;;;23.60;47.76
7986;BME280;4038;42.612;23.066;2022-09-12T09:26:50;92971.66;;;25.33;44.75
7986;BME280;4038;42.612;23.066;2022-09-12T09:29:19;92965.88;;;24.52;44.93
7986;BME280;4038;42.612;23.066;2022-09-12T09:31:48;92962.59;;;24.17;46.46
7986;BME280;4038;42.612;23.066;2022-09-12T09:34:19;92963.78;;;22.16;50.83
7986;BME280;4038;42.612;23.066;2022-09-12T09:37:11;92972.06;;;21.15;53.61
7986;BME280;4038;42.612;23.066;2022-09-12T09:42:51;92970.88;;;21.26;54.79
7986;BME280;4038;42.612;23.066;2022-09-12T09:45:21;92964.53;;;21.33;54.11
7986;BME280;4038;42.612;23.066;2022-09-12T09:47:56;92950.75;;;20.78;55.77
7986;BME280;4038;42.612;23.066;2022-09-12T09:50:23;92967.09;;;21.38;54.80
7986;BME280;4038;42.612;23.066;2022-09-12T09:52:50;92967.47;;;21.35;55.31
7986;BME280;4038;42.612;23.066;2022-09-12T09:55:23;92969.66;;;21.44;55.12
7986;BME280;4038;42.612;23.066;2022-09-12T09:57:49;92957.53;;;22.43;52.00
7986;BME280;4038;42.612;23.066;2022-09-12T10:00:30;92958.94;;;22.00;52.82
7986;BME280;4038;42.612;23.066;2022-09-12T10:05:29;92968.03;;;22.69;51.52
7986;BME280;4038;42.612;23.066;2022-09-12T10:07:56;92949.31;;;23.16;48.24
7986;BME280;4038;42.612;23.066;2022-09-12T10:10:23;92950.22;;;22.91;49.27
7986;BME280;4038;42.612;23.066;2022-09-12T10:12:50;92968.22;;;22.54;50.65
7986;BME280;4038;42.612;23.066;2022-09-12T10:15:20;92958.44;;;22.45;50.75
7986;BME280;4038;42.612;23.066;2022-09-12T10:17:48;92972.19;;;21.92;52.45
7986;BME280;4038;42.612;23.066;2022-09-12T10:20:41;92971.53;;;21.41;54.24
7986;BME280;4038;42.612;23.066;2022-09-12T10:23:28;92954.47;;;21.05;56.01
7986;BME280;4038;42.612;23.066;2022-09-12T10:25:57;92964.34;;;20.98;56.94
7986;BME280;4038;42.612;23.066;2022-09-12T10:28:39;92967.59;;;22.11;54.46
7986;BME280;4038;42.612;23.066;2022-09-12T10:31:08;92959.97;;;22.73;52.05
7986;BME280;4038;42.612;23.066;2022-09-12T10:33:41;92954.94;;;22.72;51.98
7986;BME280;4038;42.612;23.066;2022-09-12T10:36:07;92955.19;;;23.47;49.27
7986;BME280;4038;42.612;23.066;2022-09-12T10:38:33;92962.84;;;23.83;48.05
7986;BME280;4038;42.612;23.066;2022-09-12T10:41:09;92961.38;;;24.01;48.13
7986;BME280;4038;42.612;23.066;2022-09-12T10:43:40;92958.34;;;23.24;49.63
7986;BME280;4038;42.612;23.066;2022-09-12T10:48:45;92970.53;;;21.71;52.50
7986;BME280;4038;42.612;23.066;2022-09-12T10:53:52;92962.53;;;21.51;53.79
7986;BME280;4038;42.612;23.066;2022-09-12T10:56:21;92971.69;;;21.43;53.93
7986;BME280;4038;42.612;23.066;2022-09-12T11:29:40;92950.69;;;20.85;52.91
7986;BME280;4038;42.612;23.066;2022-09-12T11:35:30;92952.34;;;21.88;49.84
7986;BME280;4038;42.612;23.066;2022-09-12T11:41:11;92948.00;;;21.27;50.86
7986;BME280;4038;42.612;23.066;2022-09-12T11:43:44;92949.44;;;20.79;51.29
7986;BME280;4038;42.612;23.066;2022-09-12T11:57:44;92960.81;;;21.97;48.81
7986;BME280;4038;42.612;23.066;2022-09-12T12:03:14;92953.03;;;21.71;49.34
7986;BME280;4038;42.612;23.066;2022-09-12T12:05:58;92948.19;;;21.29;49.07
7986;BME280;4038;42.612;23.066;2022-09-12T12:08:26;92952.00;;;21.41;50.34
7986;BME280;4038;42.612;23.066;2022-09-12T12:11:00;92946.09;;;21.05;50.28
7986;BME280;4038;42.612;23.066;2022-09-12T12:18:30;92938.97;;;21.61;49.42
7986;BME280;4038;42.612;23.066;2022-09-12T12:21:19;92935.38;;;22.72;46.50
7986;BME280;4038;42.612;23.066;2022-09-12T12:26:40;92943.38;;;23.85;44.72
7986;BME280;4038;42.612;23.066;2022-09-12T12:36:57;92939.84;;;23.38;45.24
7986;BME280;4038;42.612;23.066;2022-09-12T12:42:01;92937.25;;;22.86;45.63
7986;BME280;4038;42.612;23.066;2022-09-12T12:44:48;92935.38;;;21.26;49.33
7986;BME280;4038;42.612;23.066;2022-09-12T12:47:30;92938.25;;;21.11;50.90
7986;BME280;4038;42.612;23.066;2022-09-12T12:52:22;92933.88;;;21.50;50.37
7986;BME280;4038;42.612;23.066;2022-09-12T12:54:51;92925.44;;;21.58;49.63
7986;BME280;4038;42.612;23.066;2022-09-12T13:00:01;92936.31;;;21.29;51.68
7986;BME280;4038;42.612;23.066;2022-09-12T13:05:02;92933.66;;;21.06;52.22
7986;BME280;4038;42.612;23.066;2022-09-12T13:07:36;92945.53;;;20.82;52.98
7986;BME280;4038;42.612;23.066;2022-09-12T13:10:04;92941.16;;;20.96;52.14
7986;BME280;4038;42.612;23.066;2022-09-12T13:12:36;92944.34;;;20.92;52.46
7986;BME280;4038;42.612;23.066;2022-09-12T13:18:01;92932.56;;;20.69;52.85
7986;BME280;4038;42.612;23.066;2022-09-12T13:20:37;92948.81;;;21.45;51.44
7986;BME280;4038;42.612;23.066;2022-09-12T13:23:29;92931.50;;;20.64;52.45
7986;BME280;4038;42.612;23.066;2022-09-12T13:25:58;92928.81;;;20.82;52.34
7986;BME280;4038;42.612;23.066;2022-09-12T13:28:25;92925.97;;;20.57;51.89
7986;BME280;4038;42.612;23.066;2022-09-12T13:31:10;92926.75;;;20.50;52.20
7986;BME280;4038;42.612;23.066;2022-09-12T13:33:46;92922.41;;;20.16;52.42
7986;BME280;4038;42.612;23.066;2022-09-12T13:44:23;92909.72;;;21.03;50.39
7986;BME280;4038;42.612;23.066;2022-09-12T13:46:51;92915.72;;;21.41;49.47
7986;BME280;4038;42.612;23.066;2022-09-12T13:49:33;92904.75;;;20.61;51.04
7986;BME280;4038;42.612;23.066;2022-09-12T13:52:00;92919.47;;;20.07;51.76
7986;BME280;4038;42.612;23.066;2022-09-12T13:54:27;92913.81;;;19.74;53.32
7986;BME280;4038;42.612;23.066;2022-09-12T13:56:54;92913.66;;;19.65;53.81
7986;BME280;4038;42.612;23.066;2022-09-12T13:59:19;92915.69;;;19.64;53.91
7986;BME280;4038;42.612;23.066;2022-09-12T14:01:47;92922.13;;;19.82;53.92
7986;BME280;4038;42.612;23.066;2022-09-12T14:04:21;92909.59;;;20.21;54.01
7986;BME280;4038;42.612;23.066;2022-09-12T14:07:20;92924.22;;;20.37;53.80
7986;BME280;4038;42.612;23.066;2022-09-12T14:09:57;92904.28;;;20.48;53.39
7986;BME280;4038;42.612;23.066;2022-09-12T14:12:39;92919.06;;;21.23;52.39
7986;BME280;4038;42.612;23.066;2022-09-12T14:15:16;92909.91;;;21.47;50.73
7986;BME280;4038;42.612;23.066;2022-09-12T14:17:49;92919.72;;;21.90;50.51
7986;BME280;4038;42.612;23.066;2022-09-12T14:20:19;92894.94;;;21.18;51.83
7986;BME280;4038;42.612;23.066;2022-09-12T14:22:46;92908.19;;;20.52;52.82
7986;BME280;4038;42.612;23.066;2022-09-12T14:25:22;92909.69;;;20.46;53.58
7986;BME280;4038;42.612;23.066;2022-09-12T14:27:54;92911.63;;;20.20;54.20
7986;BME280;4038;42.612;23.066;2022-09-12T14:30:32;92923.03;;;20.00;54.99
7986;BME280;4038;42.612;23.066;2022-09-12T14:35:37;92920.84;;;19.75;56.46
7986;BME280;4038;42.612;23.066;2022-09-12T14:38:25;92926.41;;;19.75;56.62
7986;BME280;4038;42.612;23.066;2022-09-12T14:41:00;92925.34;;;19.63;56.71
7986;BME280;4038;42.612;23.066;2022-09-12T14:43:38;92919.06;;;19.47;57.63
7986;BME280;4038;42.612;23.066;2022-09-12T14:48:43;92931.97;;;19.75;57.78
7986;BME280;4038;42.612;23.066;2022-09-12T14:51:34;92915.47;;;19.77;57.67
7986;BME280;4038;42.612;23.066;2022-09-12T14:54:01;92925.25;;;20.01;57.05
7986;BME280;4038;42.612;23.066;2022-09-12T14:56:39;92927.22;;;20.23;56.50
7986;BME280;4038;42.612;23.066;2022-09-12T14:59:39;92925.03;;;20.14;55.77
7986;BME280;4038;42.612;23.066;2022-09-12T15:02:23;92919.53;;;19.84;56.30
7986;BME280;4038;42.612;23.066;2022-09-12T15:04:50;92927.34;;;19.85;56.23
7986;BME280;4038;42.612;23.066;2022-09-12T15:07:35;92916.00;;;20.39;55.34
7986;BME280;4038;42.612;23.066;2022-09-12T15:10:21;92917.84;;;20.51;53.71
7986;BME280;4038;42.612;23.066;2022-09-12T15:12:48;92899.53;;;20.33;53.97
7986;BME280;4038;42.612;23.066;2022-09-12T15:15:16;92911.31;;;20.09;54.21
7986;BME280;4038;42.612;23.066;2022-09-12T15:17:42;92905.63;;;20.32;54.06
7986;BME280;4038;42.612;23.066;2022-09-12T15:20:08;92903.47;;;20.22;54.03
7986;BME280;4038;42.612;23.066;2022-09-12T15:22:35;92904.47;;;20.02;54.85
7986;BME280;4038;42.612;23.066;2022-09-12T15:25:02;92917.66;;;19.94;55.08
7986;BME280;4038;42.612;23.066;2022-09-12T15:27:28;92910.28;;;20.29;54.36
7986;BME280;4038;42.612;23.066;2022-09-12T15:29:53;92913.53;;;20.03;54.61
7986;BME280;4038;42.612;23.066;2022-09-12T15:32:26;92895.16;;;20.07;55.24
7986;BME280;4038;42.612;23.066;2022-09-12T15:34:53;92887.31;;;20.21;54.86
7986;BME280;4038;42.612;23.066;2022-09-12T15:37:22;92889.72;;;20.89;53.21
7986;BME280;4038;42.612;23.066;2022-09-12T15:39:48;92890.97;;;20.71;53.13
7986;BME280;4038;42.612;23.066;2022-09-12T15:42:15;92900.94;;;20.82;53.18
7986;BME280;4038;42.612;23.066;2022-09-12T15:44:41;92897.91;;;20.87;53.10
7986;BME280;4038;42.612;23.066;2022-09-12T15:47:13;92902.91;;;21.14;52.54
7986;BME280;4038;42.612;23.066;2022-09-12T15:49:39;92891.22;;;20.58;53.40
7986;BME280;4038;42.612;23.066;2022-09-12T15:52:06;92894.66;;;20.74;51.36
7986;BME280;4038;42.612;23.066;2022-09-12T15:54:32;92876.88;;;20.37;51.38
7986;BME280;4038;42.612;23.066;2022-09-12T15:56:57;92871.63;;;20.01;51.45
7986;BME280;4038;42.612;23.066;2022-09-12T15:59:25;92888.91;;;20.39;50.66
7986;BME280;4038;42.612;23.066;2022-09-12T16:01:50;92895.47;;;20.19;50.82
7986;BME280;4038;42.612;23.066;2022-09-12T16:04:25;92904.06;;;20.06;51.46
7986;BME280;4038;42.612;23.066;2022-09-12T16:06:51;92905.19;;;20.03;51.29
7986;BME280;4038;42.612;23.066;2022-09-12T16:09:17;92904.75;;;19.66;51.84
7986;BME280;4038;42.612;23.066;2022-09-12T16:11:43;92905.66;;;19.69;51.80